Dubuque, IA (52001)

9:28 PM CDT on April 01, 2015 (GMT -0500)
Eagle Valley | | Change Station
CLOSE
Current Station
Personal Weather Station
Location: Dubuque, IA
Elevation: 837 ft
Nearby Weather Stations
Active Advisory: Special Statement Active Notice: Public Information Statement

Elev 837 ft 42.54 °N, 90.66 °W | Updated 1 minute ago

Clear
Clear
66.0 °F
Feels Like 66.0 °F
N
6.0
Wind Variable Wind from NNW
Gusts 18.0 mph

Today
High -- | Low -- °F
--% Chance of Precip.
Yesterday
High -- | Low -- °F
Precip. -- in
6:45 AM 7:28 PM
Waxing Gibbous, 95% visible
Pressure 29.74 in
Visibility 10.0 miles
Clouds Clear
Dew Point 37 °F
Humidity 34%
Rainfall 0.00 in
Snow Depth Not available.
UV 0 out of 12
Pollen 8.00 out of 12
Air Quality Not available.
Flu Activity Not available.
METAR KDBQ 020153Z AUTO 18017KT 10SM CLR 17/02 A2974 RMK AO2 PK WND 18027/0122 SLP069 T01720017

More Conditions Fewer Conditions

Pressure 29.74 in
Visibility 10.0 miles
Clouds Clear
Dew Point 37 °F
Humidity 34%
Rainfall 0.00 in
Snow Depth Not available.
UV 0 out of 12
Pollen 8.00 out of 12
Air Quality Not available.
Flu Activity Not available.
METAR KDBQ 020153Z AUTO 18017KT 10SM CLR 17/02 A2974 RMK AO2 PK WND 18027/0122 SLP069 T01720017

More Conditions Fewer Conditions

10-Day Weather Forecast

Almanac

Astronomy

Apr. 01, 2015 Rise Set
Actual Time
Civil Twilight
Nautical Twilight
Astronomical Twilight
Moon
Length of Visible Light
Length of Day
Tomorrow will be .
, % of the Moon is Illuminated

Today's Extremes

State Highs State Lows

Community

WunderPhotos

Upload Photos

1,810,160 photos uploaded!

WunderBlogs® & News

Nearby

Air Quality

  Air Quality AQ Index Pollutant
Not available.

Snow Depth

Station Depth Elevation

Earthquake Activity

City Distance Mag. Time & Date
Minimum magnitude displayed is 2.5.

Coastal Water Temperatures

Place Temperature

Stations

Nearby Weather Stations

Station Location Temp. Windchill Dew Point Humidity Wind Precip. Elev Updated Type
                   
Special Statement
Statement as of 7:16 PM CDT on April 01, 2015

... High fire danger continues this evening...

The combination of dry vegetation... low relative humidity and
strong gusty winds will result in increased threat of rapidly
spreading field and grass fires this evening. South winds from 20
to 30 mph may cause fires to spread rapidly and become
uncontrollable.

Decreasing winds and the onset of higher relative humidity levels
will reduce the fire danger by 9 PM.

Avoid burning outdoors if at all possible this evening.